createdAt,value
2023-01-23T00:01:46.889Z,38.50
2023-01-23T00:04:27.869Z,35.80
2023-01-23T00:07:07.026Z,35.40
2023-01-23T00:09:39.354Z,35.20
2023-01-23T00:12:14.201Z,37.20
2023-01-23T00:14:45.790Z,37.10
2023-01-23T00:17:25.722Z,37.70
2023-01-23T00:20:11.261Z,43.60
2023-01-23T00:22:53.931Z,40.90
2023-01-23T00:26:02.107Z,41.30
2023-01-23T00:28:40.615Z,43.20
2023-01-23T00:31:44.393Z,40.60
2023-01-23T00:34:20.655Z,41.80
2023-01-23T00:36:52.550Z,41.70
2023-01-23T00:39:42.025Z,39.00
2023-01-23T00:42:20.027Z,37.20
2023-01-23T00:44:53.980Z,37.70
2023-01-23T00:47:23.943Z,36.70
2023-01-23T00:49:57.368Z,36.80
2023-01-23T00:52:42.329Z,34.90
2023-01-23T00:55:14.812Z,34.80
2023-01-23T00:57:49.003Z,36.30
2023-01-23T01:00:20.731Z,32.40
2023-01-23T01:02:54.140Z,37.40
2023-01-23T01:05:29.611Z,35.30
2023-01-23T01:08:01.356Z,35.40
2023-01-23T01:13:24.771Z,34.60
2023-01-23T01:16:18.224Z,33.40
2023-01-23T01:18:49.690Z,33.80
2023-01-23T01:21:24.881Z,34.90
2023-01-23T01:23:54.229Z,35.60
2023-01-23T01:26:34.645Z,35.40
2023-01-23T01:29:11.076Z,34.40
2023-01-23T01:31:43.228Z,34.20
2023-01-23T01:34:12.522Z,33.50
2023-01-23T01:36:43.992Z,35.20
2023-01-23T01:39:22.698Z,35.70
2023-01-23T01:42:14.935Z,36.30
2023-01-23T01:44:59.600Z,37.50
2023-01-23T01:47:31.714Z,35.80
2023-01-23T01:50:14.133Z,38.00
2023-01-23T01:52:53.063Z,36.70
2023-01-23T01:55:27.210Z,34.60
2023-01-23T01:58:06.031Z,35.20
2023-01-23T02:00:41.066Z,35.70
2023-01-23T02:03:18.616Z,33.70
2023-01-23T02:05:53.263Z,35.80
2023-01-23T02:08:57.859Z,33.80
2023-01-23T02:11:42.152Z,37.40
2023-01-23T02:14:19.980Z,32.40
2023-01-23T02:17:03.441Z,35.70
2023-01-23T02:20:03.466Z,35.90
2023-01-23T02:23:01.674Z,34.90
2023-01-23T02:26:12.262Z,35.40
2023-01-23T02:28:46.213Z,34.10
2023-01-23T02:31:20.492Z,35.60
2023-01-23T02:33:55.474Z,35.90
2023-01-23T02:36:49.459Z,37.40
2023-01-23T02:39:30.018Z,36.00
2023-01-23T02:42:09.743Z,35.70
2023-01-23T02:45:02.003Z,38.00
2023-01-23T02:47:38.247Z,37.50
2023-01-23T02:50:17.036Z,36.20
2023-01-23T02:52:57.941Z,37.60
2023-01-23T02:55:45.086Z,41.30
2023-01-23T02:58:36.374Z,36.80
2023-01-23T03:01:05.264Z,37.50
2023-01-23T03:03:34.345Z,39.10
2023-01-23T03:06:10.935Z,39.60
2023-01-23T03:09:33.598Z,41.30
2023-01-23T03:12:11.766Z,41.40
2023-01-23T03:14:58.330Z,40.00
2023-01-23T03:20:03.373Z,41.30
2023-01-23T03:22:35.638Z,36.10
2023-01-23T03:25:05.294Z,38.60
2023-01-23T03:27:36.362Z,35.30
2023-01-23T03:30:21.692Z,35.30
2023-01-23T03:32:55.606Z,35.50
2023-01-23T03:35:27.685Z,36.20
2023-01-23T03:38:00.128Z,37.90
2023-01-23T03:40:47.647Z,37.70
2023-01-23T03:43:20.412Z,36.40
2023-01-23T03:45:57.026Z,36.80
2023-01-23T03:48:31.922Z,40.00
2023-01-23T03:51:05.982Z,38.50
2023-01-23T03:53:48.399Z,39.90
2023-01-23T03:56:27.122Z,38.20
2023-01-23T03:59:05.263Z,38.60
2023-01-23T04:01:45.997Z,38.00
2023-01-23T04:04:19.438Z,39.80
2023-01-23T04:06:51.300Z,39.80
2023-01-23T04:09:28.749Z,39.50
2023-01-23T04:12:02.111Z,41.00
2023-01-23T04:14:45.411Z,40.30
2023-01-23T04:17:15.989Z,42.70
2023-01-23T04:19:50.369Z,41.50
2023-01-23T04:22:22.369Z,45.20
2023-01-23T04:24:52.907Z,46.40
2023-01-23T04:27:21.769Z,41.00
2023-01-23T04:29:57.982Z,42.80
2023-01-23T04:32:36.579Z,44.90
2023-01-23T04:35:24.616Z,43.80
2023-01-23T04:37:56.413Z,44.10
2023-01-23T04:40:27.621Z,47.30
2023-01-23T04:43:00.965Z,46.80
2023-01-23T04:45:47.251Z,47.50
2023-01-23T04:48:43.383Z,44.70
2023-01-23T04:51:24.486Z,45.90
2023-01-23T04:54:14.487Z,48.50
2023-01-23T04:56:52.363Z,46.90
2023-01-23T04:59:24.616Z,44.20
2023-01-23T05:02:00.545Z,47.40
2023-01-23T05:07:04.230Z,42.10
2023-01-23T05:09:44.264Z,47.70
2023-01-23T05:12:19.687Z,53.20
2023-01-23T05:14:56.916Z,51.20
2023-01-23T05:17:33.525Z,53.50
2023-01-23T05:20:12.140Z,52.10
2023-01-23T05:22:54.482Z,49.60
2023-01-23T05:25:31.525Z,54.30
2023-01-23T05:28:16.171Z,47.70
2023-01-23T05:30:54.283Z,47.10
2023-01-23T05:33:53.154Z,45.20
2023-01-23T05:36:51.527Z,42.80
2023-01-23T05:39:26.683Z,44.30
2023-01-23T05:42:34.486Z,44.40
2023-01-23T05:45:29.633Z,42.90
2023-01-23T05:48:01.565Z,46.40
2023-01-23T05:50:42.972Z,41.20
2023-01-23T05:53:18.737Z,44.40
2023-01-23T05:55:50.170Z,42.70
2023-01-23T05:58:31.934Z,40.60
2023-01-23T06:01:30.372Z,43.00
2023-01-23T06:04:17.333Z,41.90
2023-01-23T06:07:04.346Z,40.30
2023-01-23T06:09:33.662Z,42.40
2023-01-23T06:12:03.796Z,42.70
2023-01-23T06:14:34.016Z,42.10
2023-01-23T06:17:13.457Z,41.30
2023-01-23T06:19:44.702Z,44.70
2023-01-23T06:22:13.799Z,47.00
2023-01-23T06:25:08.033Z,52.10
2023-01-23T06:27:57.131Z,49.80
2023-01-23T06:30:52.053Z,51.20
2023-01-23T06:33:41.004Z,52.20
2023-01-23T06:36:18.901Z,50.70
2023-01-23T06:39:03.860Z,50.00
2023-01-23T06:41:47.991Z,49.70
2023-01-23T06:44:27.564Z,47.80
2023-01-23T06:49:39.890Z,47.20
2023-01-23T06:52:14.636Z,46.60
2023-01-23T06:54:52.094Z,51.00
2023-01-23T06:57:38.442Z,51.50
2023-01-23T07:00:21.296Z,58.60
2023-01-23T07:03:12.278Z,52.80
2023-01-23T07:05:44.332Z,51.10
2023-01-23T07:08:31.150Z,48.00
2023-01-23T07:11:05.899Z,48.50
2023-01-23T07:13:42.326Z,45.90
2023-01-23T07:16:50.025Z,48.80
2023-01-23T07:19:23.883Z,52.50
2023-01-23T07:21:55.336Z,52.10
2023-01-23T07:24:52.800Z,53.70
2023-01-23T07:27:36.563Z,54.70
2023-01-23T07:30:09.190Z,56.10
2023-01-23T07:32:38.340Z,59.40
2023-01-23T07:35:19.644Z,80.90
2023-01-23T07:37:54.648Z,59.90
2023-01-23T07:40:41.428Z,57.60
2023-01-23T07:43:24.668Z,59.40
2023-01-23T07:46:05.327Z,61.40
2023-01-23T07:48:41.455Z,63.10
2023-01-23T07:51:32.555Z,57.30
2023-01-23T07:54:09.301Z,57.50
2023-01-23T07:56:40.224Z,56.70
2023-01-23T07:59:29.006Z,53.00
2023-01-23T08:02:07.763Z,51.70
2023-01-23T08:04:39.652Z,51.80
2023-01-23T08:07:20.172Z,53.70
2023-01-23T08:09:52.405Z,54.20
2023-01-23T08:12:22.727Z,52.20
2023-01-23T08:14:57.532Z,52.90
2023-01-23T08:17:47.903Z,50.90
2023-01-23T08:20:23.810Z,53.30
2023-01-23T08:22:58.645Z,51.10
2023-01-23T08:25:28.018Z,52.40
2023-01-23T08:28:04.390Z,53.80
2023-01-23T08:30:51.547Z,52.70
2023-01-23T08:33:22.728Z,54.40
2023-01-23T08:35:59.519Z,51.50
2023-01-23T08:38:36.699Z,52.30
2023-01-23T08:41:05.844Z,52.70
2023-01-23T08:43:43.631Z,50.10
2023-01-23T08:46:16.142Z,51.70
2023-01-23T08:48:58.113Z,53.40
2023-01-23T08:51:29.901Z,55.40
2023-01-23T08:54:01.667Z,53.30
2023-01-23T08:56:32.733Z,47.00
2023-01-23T08:59:06.904Z,48.90
2023-01-23T09:01:36.859Z,48.30
2023-01-23T09:04:10.556Z,53.20
2023-01-23T09:06:48.289Z,50.10
2023-01-23T09:09:25.625Z,54.10
2023-01-23T09:11:55.383Z,51.70
2023-01-23T09:14:24.342Z,55.00
2023-01-23T09:16:56.616Z,53.60
2023-01-23T09:19:25.532Z,51.60
2023-01-23T09:21:56.655Z,51.00
2023-01-23T09:24:31.890Z,49.20
2023-01-23T09:27:02.915Z,48.10
2023-01-23T09:29:34.381Z,48.50
2023-01-23T09:32:10.915Z,50.40
2023-01-23T09:34:50.774Z,54.60
2023-01-23T09:37:59.821Z,47.20
2023-01-23T09:41:11.837Z,54.40
2023-01-23T09:44:15.666Z,50.10
2023-01-23T09:47:37.770Z,48.00
2023-01-23T09:50:36.575Z,48.20
2023-01-23T09:53:24.326Z,50.60
2023-01-23T09:56:06.918Z,51.50
2023-01-23T09:59:14.533Z,50.70
2023-01-23T10:01:54.613Z,50.70
2023-01-23T10:04:37.636Z,45.80
2023-01-23T10:07:42.471Z,50.90
2023-01-23T10:10:42.606Z,49.20
2023-01-23T10:13:33.340Z,47.60
2023-01-23T10:17:09.809Z,49.40
2023-01-23T10:20:31.869Z,49.50
2023-01-23T10:23:27.337Z,49.90
2023-01-23T10:25:56.911Z,49.90
2023-01-23T10:28:50.341Z,50.30
2023-01-23T10:32:03.535Z,51.70
2023-01-23T10:35:19.271Z,51.60
2023-01-23T10:38:30.146Z,53.70
2023-01-23T10:41:15.413Z,50.40
2023-01-23T10:43:57.328Z,54.60
2023-01-23T10:46:53.318Z,58.90
2023-01-23T10:49:39.509Z,49.30
2023-01-23T10:52:35.599Z,49.50
2023-01-23T10:55:20.668Z,52.60
2023-01-23T10:57:56.190Z,56.80
2023-01-23T11:01:03.358Z,51.80
2023-01-23T11:03:48.051Z,54.90
2023-01-23T11:06:41.922Z,56.60
2023-01-23T11:09:30.660Z,63.50
2023-01-23T11:12:14.278Z,51.10
2023-01-23T11:15:48.127Z,49.20
2023-01-23T11:19:05.542Z,46.70
2023-01-23T11:22:06.215Z,48.00
2023-01-23T11:24:45.334Z,50.40
2023-01-23T11:27:31.351Z,47.20
2023-01-23T11:30:44.996Z,53.00
2023-01-23T11:33:27.903Z,54.70
2023-01-23T11:36:36.609Z,48.40
2023-01-23T11:39:47.992Z,52.60
2023-01-23T11:42:24.367Z,51.90
2023-01-23T11:45:12.368Z,55.00
2023-01-23T11:48:48.916Z,52.50
2023-01-23T11:51:53.509Z,48.10
2023-01-23T11:55:38.801Z,45.70
2023-01-23T11:58:49.957Z,44.00
2023-01-23T12:02:03.111Z,48.20
2023-01-23T12:04:52.986Z,49.70
2023-01-23T12:07:30.749Z,49.40
2023-01-23T12:10:32.426Z,50.60
2023-01-23T12:13:20.192Z,48.60
2023-01-23T12:16:27.776Z,48.70
2023-01-23T12:19:51.795Z,49.10
2023-01-23T12:22:59.101Z,47.90
2023-01-23T12:25:57.442Z,45.80
2023-01-23T12:28:46.799Z,49.00
2023-01-23T12:31:54.834Z,49.70
2023-01-23T12:34:52.001Z,52.50
2023-01-23T12:37:35.879Z,57.10
2023-01-23T12:40:29.323Z,56.00
2023-01-23T12:43:37.339Z,56.40
2023-01-23T12:46:25.108Z,52.30
2023-01-23T12:49:23.975Z,53.40
2023-01-23T12:52:15.939Z,51.40
2023-01-23T12:55:20.659Z,51.60
2023-01-23T12:58:07.792Z,50.60
2023-01-23T13:01:17.547Z,58.40
2023-01-23T13:04:27.277Z,53.30
2023-01-23T13:07:42.064Z,55.60
2023-01-23T13:11:19.017Z,53.40
2023-01-23T13:13:50.110Z,51.30
2023-01-23T13:16:34.022Z,48.00
2023-01-23T13:19:58.210Z,51.00
2023-01-23T13:22:41.090Z,52.10
2023-01-23T13:25:29.529Z,56.50
2023-01-23T13:29:08.252Z,52.90
2023-01-23T13:33:08.508Z,54.20
2023-01-23T13:35:58.800Z,51.90
2023-01-23T13:39:07.616Z,60.80
2023-01-23T13:41:44.439Z,65.00
2023-01-23T13:44:27.234Z,72.20
2023-01-23T14:22:51.565Z,63.20
2023-01-23T14:26:04.885Z,60.40
2023-01-23T14:29:33.440Z,59.50
2023-01-23T14:37:06.771Z,55.90
2023-01-23T14:41:01.629Z,55.10
2023-01-23T14:44:46.047Z,53.40
2023-01-23T14:52:16.290Z,58.00
2023-01-23T14:55:30.815Z,56.60
2023-01-23T14:58:58.129Z,61.40
2023-01-23T15:02:20.289Z,55.40
2023-01-23T15:14:03.822Z,66.70
2023-01-23T15:16:58.827Z,65.90
2023-01-23T15:24:49.249Z,59.30
2023-01-23T15:27:48.215Z,58.80
2023-01-23T15:34:33.948Z,57.40
2023-01-23T15:37:34.852Z,56.10
2023-01-23T15:40:25.789Z,62.60
2023-01-23T15:43:16.023Z,55.60
2023-01-23T15:45:56.227Z,51.30
2023-01-23T15:48:47.155Z,53.30
2023-01-23T15:52:17.516Z,53.00
2023-01-23T15:55:39.933Z,52.80
2023-01-23T15:59:20.193Z,54.90
2023-01-23T16:09:37.180Z,56.70
2023-01-23T16:12:52.271Z,59.60
2023-01-23T16:40:42.436Z,66.80
2023-01-23T16:43:40.363Z,66.20
2023-01-23T16:46:33.307Z,70.50
2023-01-23T16:49:54.063Z,72.10
2023-01-23T16:52:40.100Z,73.90
2023-01-23T16:56:43.401Z,74.90
2023-01-23T17:14:08.096Z,72.70
2023-01-23T17:17:33.834Z,70.00
2023-01-23T17:20:39.183Z,60.90
2023-01-23T17:23:38.703Z,60.00
2023-01-23T17:26:25.167Z,58.80
2023-01-23T17:29:23.045Z,62.70
2023-01-23T17:33:02.603Z,62.80
2023-01-23T17:36:22.469Z,60.60
2023-01-23T17:44:04.805Z,58.90
2023-01-23T17:46:57.354Z,60.40
2023-01-23T17:50:13.994Z,54.90
2023-01-23T17:53:13.627Z,53.20
2023-01-23T17:58:57.539Z,53.30
2023-01-23T18:05:00.266Z,60.90
2023-01-23T18:08:09.040Z,60.30
2023-01-23T18:11:16.249Z,61.40
2023-01-23T18:15:25.564Z,63.30
2023-01-23T18:18:10.849Z,62.60
2023-01-23T18:21:36.716Z,64.80
2023-01-23T18:24:42.715Z,60.60
2023-01-23T18:27:40.518Z,59.10
2023-01-23T18:33:32.627Z,57.20
2023-01-23T18:45:05.409Z,70.70
2023-01-23T19:22:18.585Z,55.60
2023-01-23T19:25:27.090Z,52.90
2023-01-23T19:47:08.686Z,59.30
2023-01-23T19:50:59.931Z,56.60
2023-01-23T19:54:21.759Z,56.50
2023-01-23T19:57:25.626Z,58.40
2023-01-23T20:00:01.043Z,57.50
2023-01-23T20:02:51.883Z,60.20
2023-01-23T20:05:40.649Z,57.50
2023-01-23T20:08:58.124Z,56.40
2023-01-23T20:11:52.092Z,59.10
2023-01-23T20:15:08.053Z,54.70
2023-01-23T20:17:59.730Z,58.70
2023-01-23T20:20:41.873Z,62.30
2023-01-23T20:23:29.667Z,59.20
2023-01-23T20:26:05.686Z,62.60
2023-01-23T20:28:57.576Z,60.40
2023-01-23T20:31:44.533Z,56.70
2023-01-23T20:34:55.800Z,60.10
2023-01-23T20:37:46.262Z,56.10
2023-01-23T20:40:43.365Z,55.90
2023-01-23T20:43:34.364Z,52.60
2023-01-23T20:46:38.336Z,50.60
2023-01-23T20:49:26.508Z,58.30
2023-01-23T20:52:28.994Z,57.60
2023-01-23T20:55:30.544Z,58.70
2023-01-23T20:59:22.822Z,55.40
2023-01-23T21:02:39.187Z,55.50
2023-01-23T21:05:37.475Z,51.20
2023-01-23T21:08:29.182Z,53.50
2023-01-23T21:11:29.025Z,53.30
2023-01-23T21:14:22.511Z,54.00
2023-01-23T21:17:19.295Z,53.80
2023-01-23T21:20:02.560Z,54.90
2023-01-23T21:22:43.422Z,54.40
2023-01-23T21:25:41.633Z,57.60
2023-01-23T21:28:16.533Z,59.10
2023-01-23T21:31:33.603Z,60.10
2023-01-23T21:34:17.405Z,58.70
2023-01-23T21:37:13.161Z,62.10
2023-01-23T21:39:55.623Z,60.80
2023-01-23T21:42:53.104Z,65.50
2023-01-23T21:49:01.516Z,59.10
2023-01-23T21:51:59.415Z,57.60
2023-01-23T21:55:25.633Z,46.40
2023-01-23T21:58:25.725Z,46.80
2023-01-23T22:04:30.247Z,44.70
2023-01-23T22:07:15.442Z,46.80
2023-01-23T22:09:57.413Z,46.10
2023-01-23T22:13:10.492Z,45.30
2023-01-23T22:20:22.803Z,45.20
2023-01-23T22:26:36.313Z,47.40
2023-01-23T22:29:24.294Z,47.50
2023-01-23T22:32:10.421Z,46.70
2023-01-23T22:34:56.378Z,47.30
2023-01-23T22:37:31.615Z,53.40
2023-01-23T22:40:05.802Z,50.10
2023-01-23T22:42:40.290Z,44.30
2023-01-23T22:45:18.159Z,44.00
2023-01-23T22:47:48.670Z,50.20
2023-01-23T22:50:32.165Z,48.90
2023-01-23T22:53:33.015Z,50.30
2023-01-23T22:56:07.258Z,50.80
2023-01-23T22:58:48.692Z,47.20
2023-01-23T23:01:25.939Z,48.30
2023-01-23T23:04:14.727Z,46.50
2023-01-23T23:06:53.321Z,48.50
2023-01-23T23:09:32.010Z,52.30
2023-01-23T23:12:19.844Z,52.50
2023-01-23T23:15:08.206Z,47.80
2023-01-23T23:18:25.076Z,43.60
2023-01-23T23:22:15.023Z,44.40
2023-01-23T23:24:57.203Z,45.90
2023-01-23T23:27:31.269Z,43.10
2023-01-23T23:30:19.832Z,45.70
2023-01-23T23:32:55.543Z,43.90
2023-01-23T23:35:25.838Z,44.10
2023-01-23T23:38:07.030Z,43.60
2023-01-23T23:41:02.236Z,42.50
2023-01-23T23:43:35.751Z,43.20
2023-01-23T23:46:08.849Z,44.00
2023-01-23T23:48:46.184Z,44.60
2023-01-23T23:51:23.054Z,45.90
2023-01-23T23:57:07.424Z,45.70
2023-01-23T23:59:58.521Z,45.30
